sensor_id;sensor_type;location;lat;lon;timestamp;temperature;humidity
21355;DHT22;10835;50.148;19.760;2023-06-24T00:00:47;30.90;57.20
21355;DHT22;10835;50.148;19.760;2023-06-24T00:03:15;30.90;57.20
21355;DHT22;10835;50.148;19.760;2023-06-24T00:05:44;30.90;57.10
21355;DHT22;10835;50.148;19.760;2023-06-24T00:08:16;30.60;57.30
21355;DHT22;10835;50.148;19.760;2023-06-24T00:10:46;30.40;57.80
21355;DHT22;10835;50.148;19.760;2023-06-24T00:13:16;30.10;58.10
21355;DHT22;10835;50.148;19.760;2023-06-24T00:15:44;29.70;58.60
21355;DHT22;10835;50.148;19.760;2023-06-24T00:18:13;29.80;58.60
21355;DHT22;10835;50.148;19.760;2023-06-24T00:20:41;30.00;58.50
21355;DHT22;10835;50.148;19.760;2023-06-24T00:23:10;30.00;56.70
21355;DHT22;10835;50.148;19.760;2023-06-24T00:25:41;29.80;57.30
21355;DHT22;10835;50.148;19.760;2023-06-24T00:28:10;29.80;56.90
21355;DHT22;10835;50.148;19.760;2023-06-24T00:30:40;29.90;57.10
21355;DHT22;10835;50.148;19.760;2023-06-24T00:33:08;30.00;57.30
21355;DHT22;10835;50.148;19.760;2023-06-24T00:35:38;30.20;57.20
21355;DHT22;10835;50.148;19.760;2023-06-24T00:38:07;30.40;57.40
21355;DHT22;10835;50.148;19.760;2023-06-24T00:40:36;30.60;57.00
21355;DHT22;10835;50.148;19.760;2023-06-24T00:43:05;30.50;56.70
21355;DHT22;10835;50.148;19.760;2023-06-24T00:45:34;30.30;56.70
21355;DHT22;10835;50.148;19.760;2023-06-24T00:48:04;30.10;57.10
21355;DHT22;10835;50.148;19.760;2023-06-24T00:50:36;29.80;57.70
21355;DHT22;10835;50.148;19.760;2023-06-24T00:53:09;30.00;58.10
21355;DHT22;10835;50.148;19.760;2023-06-24T00:55:39;30.20;57.70
21355;DHT22;10835;50.148;19.760;2023-06-24T00:58:07;30.30;57.30
21355;DHT22;10835;50.148;19.760;2023-06-24T01:00:36;30.30;57.50
21355;DHT22;10835;50.148;19.760;2023-06-24T01:03:06;30.30;57.40
21355;DHT22;10835;50.148;19.760;2023-06-24T01:05:35;30.30;56.60
21355;DHT22;10835;50.148;19.760;2023-06-24T01:08:04;30.20;56.90
21355;DHT22;10835;50.148;19.760;2023-06-24T01:10:35;30.20;57.20
21355;DHT22;10835;50.148;19.760;2023-06-24T01:13:03;30.30;56.80
21355;DHT22;10835;50.148;19.760;2023-06-24T01:15:31;30.30;56.60
21355;DHT22;10835;50.148;19.760;2023-06-24T01:18:09;30.30;56.70
21355;DHT22;10835;50.148;19.760;2023-06-24T01:20:43;30.50;57.10
21355;DHT22;10835;50.148;19.760;2023-06-24T01:24:01;30.60;57.10
21355;DHT22;10835;50.148;19.760;2023-06-24T01:26:57;30.50;56.30
21355;DHT22;10835;50.148;19.760;2023-06-24T01:29:47;30.50;56.30
21355;DHT22;10835;50.148;19.760;2023-06-24T01:32:26;30.30;56.50
21355;DHT22;10835;50.148;19.760;2023-06-24T01:35:02;30.20;56.90
21355;DHT22;10835;50.148;19.760;2023-06-24T01:37:40;29.80;57.10
21355;DHT22;10835;50.148;19.760;2023-06-24T01:40:11;29.50;57.60
21355;DHT22;10835;50.148;19.760;2023-06-24T01:42:42;29.50;57.70
21355;DHT22;10835;50.148;19.760;2023-06-24T01:45:14;29.60;57.30
21355;DHT22;10835;50.148;19.760;2023-06-24T01:47:47;29.50;57.50
21355;DHT22;10835;50.148;19.760;2023-06-24T01:50:20;29.50;57.70
21355;DHT22;10835;50.148;19.760;2023-06-24T01:52:51;29.50;57.70
21355;DHT22;10835;50.148;19.760;2023-06-24T01:55:21;29.60;57.30
21355;DHT22;10835;50.148;19.760;2023-06-24T01:57:51;29.30;57.90
21355;DHT22;10835;50.148;19.760;2023-06-24T02:00:21;29.40;57.90
21355;DHT22;10835;50.148;19.760;2023-06-24T02:02:53;29.50;57.70
21355;DHT22;10835;50.148;19.760;2023-06-24T02:05:23;29.50;58.00
21355;DHT22;10835;50.148;19.760;2023-06-24T02:07:53;29.30;58.00
21355;DHT22;10835;50.148;19.760;2023-06-24T02:10:23;29.40;57.90
21355;DHT22;10835;50.148;19.760;2023-06-24T02:12:53;29.40;57.80
21355;DHT22;10835;50.148;19.760;2023-06-24T02:15:23;29.50;57.80
21355;DHT22;10835;50.148;19.760;2023-06-24T02:17:54;29.90;57.20
21355;DHT22;10835;50.148;19.760;2023-06-24T02:20:25;29.80;56.90
21355;DHT22;10835;50.148;19.760;2023-06-24T02:22:56;29.80;57.00
21355;DHT22;10835;50.148;19.760;2023-06-24T02:25:26;29.60;57.50
21355;DHT22;10835;50.148;19.760;2023-06-24T02:27:57;29.80;57.00
21355;DHT22;10835;50.148;19.760;2023-06-24T02:30:26;29.50;57.70
21355;DHT22;10835;50.148;19.760;2023-06-24T02:32:56;29.30;57.90
21355;DHT22;10835;50.148;19.760;2023-06-24T02:35:24;29.30;58.10
21355;DHT22;10835;50.148;19.760;2023-06-24T02:37:54;29.40;57.20
21355;DHT22;10835;50.148;19.760;2023-06-24T02:40:22;29.40;57.20
21355;DHT22;10835;50.148;19.760;2023-06-24T02:42:51;29.20;57.80
21355;DHT22;10835;50.148;19.760;2023-06-24T02:45:19;29.20;57.80
21355;DHT22;10835;50.148;19.760;2023-06-24T02:47:48;29.40;57.60
21355;DHT22;10835;50.148;19.760;2023-06-24T02:50:19;29.60;57.70
21355;DHT22;10835;50.148;19.760;2023-06-24T02:52:50;29.80;57.20
21355;DHT22;10835;50.148;19.760;2023-06-24T02:55:22;29.80;57.10
21355;DHT22;10835;50.148;19.760;2023-06-24T02:57:59;30.10;56.20
21355;DHT22;10835;50.148;19.760;2023-06-24T03:00:28;30.00;56.60
21355;DHT22;10835;50.148;19.760;2023-06-24T03:03:07;30.00;56.60
21355;DHT22;10835;50.148;19.760;2023-06-24T03:05:42;29.90;56.70
21355;DHT22;10835;50.148;19.760;2023-06-24T03:08:12;30.00;56.60
21355;DHT22;10835;50.148;19.760;2023-06-24T03:10:41;29.70;56.90
21355;DHT22;10835;50.148;19.760;2023-06-24T03:13:16;29.90;56.90
21355;DHT22;10835;50.148;19.760;2023-06-24T03:15:50;29.90;57.70
21355;DHT22;10835;50.148;19.760;2023-06-24T03:18:19;29.90;56.70
21355;DHT22;10835;50.148;19.760;2023-06-24T03:20:50;29.80;57.00
21355;DHT22;10835;50.148;19.760;2023-06-24T03:23:22;29.80;57.10
21355;DHT22;10835;50.148;19.760;2023-06-24T03:25:50;29.90;57.50
21355;DHT22;10835;50.148;19.760;2023-06-24T03:28:19;30.10;57.40
21355;DHT22;10835;50.148;19.760;2023-06-24T03:30:54;30.20;57.00
21355;DHT22;10835;50.148;19.760;2023-06-24T03:33:23;30.40;56.40
21355;DHT22;10835;50.148;19.760;2023-06-24T03:35:52;30.40;56.60
21355;DHT22;10835;50.148;19.760;2023-06-24T03:38:29;30.50;55.90
21355;DHT22;10835;50.148;19.760;2023-06-24T03:40:57;30.40;56.10
21355;DHT22;10835;50.148;19.760;2023-06-24T03:43:26;30.40;55.70
21355;DHT22;10835;50.148;19.760;2023-06-24T03:45:55;30.20;56.10
21355;DHT22;10835;50.148;19.760;2023-06-24T03:48:24;30.00;56.60
21355;DHT22;10835;50.148;19.760;2023-06-24T03:50:53;29.80;56.80
21355;DHT22;10835;50.148;19.760;2023-06-24T03:53:22;29.60;57.20
21355;DHT22;10835;50.148;19.760;2023-06-24T03:55:51;29.10;57.70
21355;DHT22;10835;50.148;19.760;2023-06-24T03:58:19;29.20;58.40
21355;DHT22;10835;50.148;19.760;2023-06-24T04:00:48;29.20;58.30
21355;DHT22;10835;50.148;19.760;2023-06-24T04:03:17;29.20;58.10
21355;DHT22;10835;50.148;19.760;2023-06-24T04:05:46;29.20;58.30
21355;DHT22;10835;50.148;19.760;2023-06-24T04:08:22;29.10;58.50
21355;DHT22;10835;50.148;19.760;2023-06-24T04:10:52;29.10;58.20
21355;DHT22;10835;50.148;19.760;2023-06-24T04:13:20;29.00;58.20
21355;DHT22;10835;50.148;19.760;2023-06-24T04:15:49;28.80;58.60
21355;DHT22;10835;50.148;19.760;2023-06-24T04:18:17;28.60;59.80
21355;DHT22;10835;50.148;19.760;2023-06-24T04:20:48;28.80;59.10
21355;DHT22;10835;50.148;19.760;2023-06-24T04:23:17;28.80;59.10
21355;DHT22;10835;50.148;19.760;2023-06-24T04:25:50;28.70;59.30
21355;DHT22;10835;50.148;19.760;2023-06-24T04:28:20;29.10;59.00
21355;DHT22;10835;50.148;19.760;2023-06-24T04:30:50;29.10;58.90
21355;DHT22;10835;50.148;19.760;2023-06-24T04:33:18;28.90;59.10
21355;DHT22;10835;50.148;19.760;2023-06-24T04:35:47;28.80;59.30
21355;DHT22;10835;50.148;19.760;2023-06-24T04:38:15;29.00;59.30
21355;DHT22;10835;50.148;19.760;2023-06-24T04:40:46;29.10;58.80
21355;DHT22;10835;50.148;19.760;2023-06-24T04:43:16;29.10;59.90
21355;DHT22;10835;50.148;19.760;2023-06-24T04:45:44;29.00;59.20
21355;DHT22;10835;50.148;19.760;2023-06-24T04:48:13;29.30;58.80
21355;DHT22;10835;50.148;19.760;2023-06-24T04:50:41;29.40;58.90
21355;DHT22;10835;50.148;19.760;2023-06-24T04:53:09;29.70;58.50
21355;DHT22;10835;50.148;19.760;2023-06-24T04:55:37;29.90;57.70
21355;DHT22;10835;50.148;19.760;2023-06-24T04:58:06;29.60;57.50
21355;DHT22;10835;50.148;19.760;2023-06-24T05:00:35;29.50;58.10
21355;DHT22;10835;50.148;19.760;2023-06-24T05:03:03;29.60;58.40
21355;DHT22;10835;50.148;19.760;2023-06-24T05:05:32;29.60;58.00
21355;DHT22;10835;50.148;19.760;2023-06-24T05:08:02;29.50;58.10
21355;DHT22;10835;50.148;19.760;2023-06-24T05:10:30;29.50;58.30
21355;DHT22;10835;50.148;19.760;2023-06-24T05:12:59;29.60;58.10
21355;DHT22;10835;50.148;19.760;2023-06-24T05:15:27;29.40;58.20
21355;DHT22;10835;50.148;19.760;2023-06-24T05:17:56;29.80;58.10
21355;DHT22;10835;50.148;19.760;2023-06-24T05:20:28;30.00;57.70
21355;DHT22;10835;50.148;19.760;2023-06-24T05:22:56;30.00;58.10
21355;DHT22;10835;50.148;19.760;2023-06-24T05:25:24;30.40;57.50
21355;DHT22;10835;50.148;19.760;2023-06-24T05:27:53;30.40;56.50
21355;DHT22;10835;50.148;19.760;2023-06-24T05:30:21;30.20;57.10
21355;DHT22;10835;50.148;19.760;2023-06-24T05:32:49;30.30;57.50
21355;DHT22;10835;50.148;19.760;2023-06-24T05:35:19;30.10;57.30
21355;DHT22;10835;50.148;19.760;2023-06-24T05:37:47;30.00;57.80
21355;DHT22;10835;50.148;19.760;2023-06-24T05:40:15;30.00;58.00
21355;DHT22;10835;50.148;19.760;2023-06-24T05:42:43;30.00;58.30
21355;DHT22;10835;50.148;19.760;2023-06-24T05:45:12;30.10;58.20
21355;DHT22;10835;50.148;19.760;2023-06-24T05:47:41;29.90;58.50
21355;DHT22;10835;50.148;19.760;2023-06-24T05:50:09;29.90;58.70
21355;DHT22;10835;50.148;19.760;2023-06-24T05:52:39;30.00;58.80
21355;DHT22;10835;50.148;19.760;2023-06-24T05:55:07;30.30;58.50
21355;DHT22;10835;50.148;19.760;2023-06-24T05:57:36;30.40;58.40
21355;DHT22;10835;50.148;19.760;2023-06-24T06:00:05;30.40;58.40
21355;DHT22;10835;50.148;19.760;2023-06-24T06:02:42;30.60;58.30
21355;DHT22;10835;50.148;19.760;2023-06-24T06:05:10;30.50;58.50
21355;DHT22;10835;50.148;19.760;2023-06-24T06:07:40;30.50;58.60
21355;DHT22;10835;50.148;19.760;2023-06-24T06:10:09;30.60;58.90
21355;DHT22;10835;50.148;19.760;2023-06-24T06:12:38;30.40;58.00
21355;DHT22;10835;50.148;19.760;2023-06-24T06:15:07;30.50;57.60
21355;DHT22;10835;50.148;19.760;2023-06-24T06:17:36;30.60;57.40
21355;DHT22;10835;50.148;19.760;2023-06-24T06:20:05;30.00;58.20
21355;DHT22;10835;50.148;19.760;2023-06-24T06:22:33;29.50;58.80
21355;DHT22;10835;50.148;19.760;2023-06-24T06:25:07;29.70;59.30
21355;DHT22;10835;50.148;19.760;2023-06-24T06:27:35;29.70;59.30
21355;DHT22;10835;50.148;19.760;2023-06-24T06:30:04;29.70;59.70
21355;DHT22;10835;50.148;19.760;2023-06-24T06:32:34;29.90;59.20
21355;DHT22;10835;50.148;19.760;2023-06-24T06:35:02;29.90;59.40
21355;DHT22;10835;50.148;19.760;2023-06-24T06:37:31;29.80;59.00
21355;DHT22;10835;50.148;19.760;2023-06-24T06:39:59;29.50;59.30
21355;DHT22;10835;50.148;19.760;2023-06-24T06:42:29;29.70;59.60
21355;DHT22;10835;50.148;19.760;2023-06-24T06:44:57;29.60;59.40
21355;DHT22;10835;50.148;19.760;2023-06-24T06:47:25;29.80;59.20
21355;DHT22;10835;50.148;19.760;2023-06-24T06:49:53;29.80;59.20
21355;DHT22;10835;50.148;19.760;2023-06-24T06:52:21;29.70;59.60
21355;DHT22;10835;50.148;19.760;2023-06-24T06:54:50;30.00;59.20
21355;DHT22;10835;50.148;19.760;2023-06-24T06:57:18;29.80;58.40
21355;DHT22;10835;50.148;19.760;2023-06-24T06:59:48;30.10;58.20
21355;DHT22;10835;50.148;19.760;2023-06-24T07:02:17;30.10;58.20
21355;DHT22;10835;50.148;19.760;2023-06-24T07:04:46;29.80;58.50
21355;DHT22;10835;50.148;19.760;2023-06-24T07:07:16;29.30;58.80
21355;DHT22;10835;50.148;19.760;2023-06-24T07:09:45;29.10;59.60
21355;DHT22;10835;50.148;19.760;2023-06-24T07:12:13;29.00;59.90
21355;DHT22;10835;50.148;19.760;2023-06-24T07:14:41;28.80;58.50
21355;DHT22;10835;50.148;19.760;2023-06-24T07:17:11;28.80;57.20
21355;DHT22;10835;50.148;19.760;2023-06-24T07:19:39;28.50;57.40
21355;DHT22;10835;50.148;19.760;2023-06-24T07:22:07;28.20;57.80
21355;DHT22;10835;50.148;19.760;2023-06-24T07:24:36;28.50;57.60
21355;DHT22;10835;50.148;19.760;2023-06-24T07:27:04;28.50;56.80
21355;DHT22;10835;50.148;19.760;2023-06-24T07:29:35;28.40;57.20
21355;DHT22;10835;50.148;19.760;2023-06-24T07:32:04;28.50;56.40
21355;DHT22;10835;50.148;19.760;2023-06-24T07:34:35;28.40;56.30
21355;DHT22;10835;50.148;19.760;2023-06-24T07:37:04;28.40;56.30
21355;DHT22;10835;50.148;19.760;2023-06-24T07:39:49;28.30;56.40
21355;DHT22;10835;50.148;19.760;2023-06-24T07:42:17;28.10;57.20
21355;DHT22;10835;50.148;19.760;2023-06-24T07:44:47;28.20;57.20
21355;DHT22;10835;50.148;19.760;2023-06-24T07:47:16;28.20;57.50
21355;DHT22;10835;50.148;19.760;2023-06-24T07:49:46;28.50;56.90
21355;DHT22;10835;50.148;19.760;2023-06-24T07:52:15;28.60;56.60
21355;DHT22;10835;50.148;19.760;2023-06-24T07:54:43;28.70;57.10
21355;DHT22;10835;50.148;19.760;2023-06-24T07:57:11;28.70;56.20
21355;DHT22;10835;50.148;19.760;2023-06-24T07:59:42;28.70;55.80
21355;DHT22;10835;50.148;19.760;2023-06-24T08:02:10;28.50;56.60
21355;DHT22;10835;50.148;19.760;2023-06-24T08:04:39;28.70;56.10
21355;DHT22;10835;50.148;19.760;2023-06-24T08:07:08;28.80;56.20
21355;DHT22;10835;50.148;19.760;2023-06-24T08:09:37;28.70;56.10
21355;DHT22;10835;50.148;19.760;2023-06-24T08:12:08;28.70;56.10
21355;DHT22;10835;50.148;19.760;2023-06-24T08:14:36;28.50;56.10
21355;DHT22;10835;50.148;19.760;2023-06-24T08:17:04;28.70;56.40
21355;DHT22;10835;50.148;19.760;2023-06-24T08:19:33;28.70;56.40
21355;DHT22;10835;50.148;19.760;2023-06-24T08:22:01;28.80;56.00
21355;DHT22;10835;50.148;19.760;2023-06-24T08:24:31;28.70;55.80
21355;DHT22;10835;50.148;19.760;2023-06-24T08:26:59;28.50;55.90
21355;DHT22;10835;50.148;19.760;2023-06-24T08:29:27;28.50;56.60
21355;DHT22;10835;50.148;19.760;2023-06-24T08:31:56;28.70;55.90
21355;DHT22;10835;50.148;19.760;2023-06-24T08:34:24;28.80;55.60
21355;DHT22;10835;50.148;19.760;2023-06-24T08:36:54;28.90;55.60
21355;DHT22;10835;50.148;19.760;2023-06-24T08:39:22;29.00;56.10
21355;DHT22;10835;50.148;19.760;2023-06-24T08:41:53;28.60;56.90
21355;DHT22;10835;50.148;19.760;2023-06-24T08:44:21;28.90;55.50
21355;DHT22;10835;50.148;19.760;2023-06-24T08:46:50;29.10;54.80
21355;DHT22;10835;50.148;19.760;2023-06-24T08:49:27;29.10;54.90
21355;DHT22;10835;50.148;19.760;2023-06-24T08:52:00;28.80;55.40
21355;DHT22;10835;50.148;19.760;2023-06-24T08:54:31;29.00;55.30
21355;DHT22;10835;50.148;19.760;2023-06-24T08:57:04;29.20;55.50
21355;DHT22;10835;50.148;19.760;2023-06-24T08:59:36;29.30;55.20
21355;DHT22;10835;50.148;19.760;2023-06-24T09:02:05;29.50;55.60
21355;DHT22;10835;50.148;19.760;2023-06-24T09:04:34;29.50;55.90
21355;DHT22;10835;50.148;19.760;2023-06-24T09:07:03;29.40;54.80
21355;DHT22;10835;50.148;19.760;2023-06-24T09:09:42;30.00;54.50
21355;DHT22;10835;50.148;19.760;2023-06-24T09:12:14;30.10;54.70
21355;DHT22;10835;50.148;19.760;2023-06-24T09:14:48;30.30;53.90
21355;DHT22;10835;50.148;19.760;2023-06-24T09:17:16;30.10;53.80
21355;DHT22;10835;50.148;19.760;2023-06-24T09:19:45;29.50;54.30
21355;DHT22;10835;50.148;19.760;2023-06-24T09:22:13;29.60;54.50
21355;DHT22;10835;50.148;19.760;2023-06-24T09:24:45;30.10;54.10
21355;DHT22;10835;50.148;19.760;2023-06-24T09:27:18;30.30;53.70
21355;DHT22;10835;50.148;19.760;2023-06-24T09:29:48;30.50;53.10
21355;DHT22;10835;50.148;19.760;2023-06-24T09:32:17;30.70;52.10
21355;DHT22;10835;50.148;19.760;2023-06-24T09:34:45;30.50;51.90
21355;DHT22;10835;50.148;19.760;2023-06-24T09:37:21;30.10;52.90
21355;DHT22;10835;50.148;19.760;2023-06-24T09:39:50;30.00;52.80
21355;DHT22;10835;50.148;19.760;2023-06-24T09:42:23;29.80;53.60
21355;DHT22;10835;50.148;19.760;2023-06-24T09:44:54;29.60;54.20
21355;DHT22;10835;50.148;19.760;2023-06-24T09:47:23;29.60;53.80
21355;DHT22;10835;50.148;19.760;2023-06-24T09:49:54;29.80;53.90
21355;DHT22;10835;50.148;19.760;2023-06-24T09:52:23;29.50;54.40
21355;DHT22;10835;50.148;19.760;2023-06-24T09:54:55;29.50;54.60
21355;DHT22;10835;50.148;19.760;2023-06-24T09:57:28;29.70;55.10
21355;DHT22;10835;50.148;19.760;2023-06-24T09:59:57;29.40;54.60
21355;DHT22;10835;50.148;19.760;2023-06-24T10:02:29;29.50;54.80
21355;DHT22;10835;50.148;19.760;2023-06-24T10:04:59;29.50;55.00
21355;DHT22;10835;50.148;19.760;2023-06-24T10:07:28;29.30;55.60
21355;DHT22;10835;50.148;19.760;2023-06-24T10:09:57;29.30;55.50
21355;DHT22;10835;50.148;19.760;2023-06-24T10:12:27;29.60;55.20
21355;DHT22;10835;50.148;19.760;2023-06-24T10:14:55;29.80;54.00
21355;DHT22;10835;50.148;19.760;2023-06-24T10:17:24;29.50;54.40
21355;DHT22;10835;50.148;19.760;2023-06-24T10:19:52;29.60;54.30
21355;DHT22;10835;50.148;19.760;2023-06-24T10:22:22;29.90;53.90
21355;DHT22;10835;50.148;19.760;2023-06-24T10:24:51;29.90;54.00
21355;DHT22;10835;50.148;19.760;2023-06-24T10:27:21;29.80;53.70
21355;DHT22;10835;50.148;19.760;2023-06-24T10:29:52;29.80;53.80
21355;DHT22;10835;50.148;19.760;2023-06-24T10:32:22;29.40;55.00
21355;DHT22;10835;50.148;19.760;2023-06-24T10:34:55;29.60;55.20
21355;DHT22;10835;50.148;19.760;2023-06-24T10:37:25;29.40;54.70
21355;DHT22;10835;50.148;19.760;2023-06-24T10:39:54;29.30;54.60
21355;DHT22;10835;50.148;19.760;2023-06-24T10:42:33;28.90;55.30
21355;DHT22;10835;50.148;19.760;2023-06-24T10:45:17;29.30;55.30
21355;DHT22;10835;50.148;19.760;2023-06-24T10:47:47;29.30;54.80
21355;DHT22;10835;50.148;19.760;2023-06-24T10:50:17;29.30;55.10
21355;DHT22;10835;50.148;19.760;2023-06-24T10:52:50;29.30;55.10
21355;DHT22;10835;50.148;19.760;2023-06-24T10:55:22;29.10;55.90
21355;DHT22;10835;50.148;19.760;2023-06-24T10:57:51;29.20;56.10
21355;DHT22;10835;50.148;19.760;2023-06-24T11:00:21;29.20;56.40
21355;DHT22;10835;50.148;19.760;2023-06-24T11:02:49;29.20;56.80
21355;DHT22;10835;50.148;19.760;2023-06-24T11:05:18;29.40;56.40
21355;DHT22;10835;50.148;19.760;2023-06-24T11:07:46;29.40;57.10
21355;DHT22;10835;50.148;19.760;2023-06-24T11:10:16;29.50;56.80
21355;DHT22;10835;50.148;19.760;2023-06-24T11:12:44;29.30;56.60
21355;DHT22;10835;50.148;19.760;2023-06-24T11:15:14;29.40;57.20
21355;DHT22;10835;50.148;19.760;2023-06-24T11:17:50;29.40;57.90
21355;DHT22;10835;50.148;19.760;2023-06-24T11:20:19;29.50;57.10
21355;DHT22;10835;50.148;19.760;2023-06-24T11:22:47;29.10;57.10
21355;DHT22;10835;50.148;19.760;2023-06-24T11:25:16;29.50;57.50
21355;DHT22;10835;50.148;19.760;2023-06-24T11:27:44;29.80;58.10
21355;DHT22;10835;50.148;19.760;2023-06-24T11:30:13;29.90;57.70
21355;DHT22;10835;50.148;19.760;2023-06-24T11:32:43;30.00;57.60
21355;DHT22;10835;50.148;19.760;2023-06-24T11:35:15;29.80;57.00
21355;DHT22;10835;50.148;19.760;2023-06-24T11:37:44;29.90;57.20
21355;DHT22;10835;50.148;19.760;2023-06-24T11:40:13;29.60;56.60
21355;DHT22;10835;50.148;19.760;2023-06-24T11:42:43;30.00;57.50
21355;DHT22;10835;50.148;19.760;2023-06-24T11:45:14;30.10;56.90
21355;DHT22;10835;50.148;19.760;2023-06-24T11:47:43;30.30;56.70
21355;DHT22;10835;50.148;19.760;2023-06-24T11:50:17;30.20;57.00
21355;DHT22;10835;50.148;19.760;2023-06-24T11:52:48;30.10;57.20
21355;DHT22;10835;50.148;19.760;2023-06-24T11:55:17;30.30;57.30
21355;DHT22;10835;50.148;19.760;2023-06-24T11:57:57;30.60;56.40
21355;DHT22;10835;50.148;19.760;2023-06-24T12:00:26;30.70;56.20
21355;DHT22;10835;50.148;19.760;2023-06-24T12:02:59;30.80;55.70
21355;DHT22;10835;50.148;19.760;2023-06-24T12:05:31;31.10;55.20
21355;DHT22;10835;50.148;19.760;2023-06-24T12:08:01;31.30;54.30
21355;DHT22;10835;50.148;19.760;2023-06-24T12:10:31;31.20;55.20
21355;DHT22;10835;50.148;19.760;2023-06-24T12:13:01;31.00;54.90
21355;DHT22;10835;50.148;19.760;2023-06-24T12:15:30;31.10;55.30
21355;DHT22;10835;50.148;19.760;2023-06-24T12:17:59;31.20;55.30
21355;DHT22;10835;50.148;19.760;2023-06-24T12:20:30;31.10;55.80
21355;DHT22;10835;50.148;19.760;2023-06-24T12:23:03;31.20;55.70
21355;DHT22;10835;50.148;19.760;2023-06-24T12:25:32;31.30;55.10
21355;DHT22;10835;50.148;19.760;2023-06-24T12:28:00;31.30;55.60
21355;DHT22;10835;50.148;19.760;2023-06-24T12:30:28;31.30;55.10
21355;DHT22;10835;50.148;19.760;2023-06-24T12:32:57;31.30;55.60
21355;DHT22;10835;50.148;19.760;2023-06-24T12:35:25;31.30;55.50
21355;DHT22;10835;50.148;19.760;2023-06-24T12:37:55;31.30;55.10
21355;DHT22;10835;50.148;19.760;2023-06-24T12:40:23;31.10;54.90
21355;DHT22;10835;50.148;19.760;2023-06-24T12:42:51;31.20;55.10
21355;DHT22;10835;50.148;19.760;2023-06-24T12:45:19;30.90;55.10
21355;DHT22;10835;50.148;19.760;2023-06-24T12:47:48;31.10;55.50
21355;DHT22;10835;50.148;19.760;2023-06-24T12:50:17;30.90;55.30
21355;DHT22;10835;50.148;19.760;2023-06-24T12:52:46;30.90;55.30
21355;DHT22;10835;50.148;19.760;2023-06-24T12:55:15;31.00;55.80
21355;DHT22;10835;50.148;19.760;2023-06-24T12:57:44;31.00;55.70
21355;DHT22;10835;50.148;19.760;2023-06-24T13:00:13;31.10;56.00
21355;DHT22;10835;50.148;19.760;2023-06-24T13:02:42;31.20;55.10
21355;DHT22;10835;50.148;19.760;2023-06-24T13:05:11;31.20;55.50
21355;DHT22;10835;50.148;19.760;2023-06-24T13:07:39;31.30;54.10
21355;DHT22;10835;50.148;19.760;2023-06-24T13:10:09;31.20;53.90
21355;DHT22;10835;50.148;19.760;2023-06-24T13:12:38;31.20;54.50
21355;DHT22;10835;50.148;19.760;2023-06-24T13:15:07;31.20;54.70
21355;DHT22;10835;50.148;19.760;2023-06-24T13:17:37;31.10;54.80
21355;DHT22;10835;50.148;19.760;2023-06-24T13:20:09;30.90;55.30
21355;DHT22;10835;50.148;19.760;2023-06-24T13:22:37;31.00;55.60
21355;DHT22;10835;50.148;19.760;2023-06-24T13:25:06;31.10;55.90
21355;DHT22;10835;50.148;19.760;2023-06-24T13:27:35;31.20;55.90
21355;DHT22;10835;50.148;19.760;2023-06-24T13:30:09;31.00;55.90
21355;DHT22;10835;50.148;19.760;2023-06-24T13:32:38;31.20;55.50
21355;DHT22;10835;50.148;19.760;2023-06-24T13:35:07;31.20;55.90
21355;DHT22;10835;50.148;19.760;2023-06-24T13:37:35;31.30;54.40
21355;DHT22;10835;50.148;19.760;2023-06-24T13:40:04;30.80;54.60
21355;DHT22;10835;50.148;19.760;2023-06-24T13:42:33;30.50;55.40
21355;DHT22;10835;50.148;19.760;2023-06-24T13:45:05;30.70;54.80
21355;DHT22;10835;50.148;19.760;2023-06-24T13:47:36;30.40;55.40
21355;DHT22;10835;50.148;19.760;2023-06-24T13:50:05;30.20;56.10
21355;DHT22;10835;50.148;19.760;2023-06-24T13:52:36;30.20;55.90
21355;DHT22;10835;50.148;19.760;2023-06-24T13:55:05;30.00;55.90
21355;DHT22;10835;50.148;19.760;2023-06-24T13:57:36;29.90;56.40
21355;DHT22;10835;50.148;19.760;2023-06-24T14:00:06;29.50;56.60
21355;DHT22;10835;50.148;19.760;2023-06-24T14:02:40;29.60;56.80
21355;DHT22;10835;50.148;19.760;2023-06-24T14:05:09;29.50;56.90
21355;DHT22;10835;50.148;19.760;2023-06-24T14:07:37;29.40;57.20
21355;DHT22;10835;50.148;19.760;2023-06-24T14:10:06;29.50;56.80
21355;DHT22;10835;50.148;19.760;2023-06-24T14:12:34;29.00;56.90
21355;DHT22;10835;50.148;19.760;2023-06-24T14:15:03;29.10;57.80
21355;DHT22;10835;50.148;19.760;2023-06-24T14:17:31;29.20;57.50
21355;DHT22;10835;50.148;19.760;2023-06-24T14:20:01;29.40;57.30
21355;DHT22;10835;50.148;19.760;2023-06-24T14:22:30;29.50;56.40
21355;DHT22;10835;50.148;19.760;2023-06-24T14:24:58;29.50;56.10
21355;DHT22;10835;50.148;19.760;2023-06-24T14:27:26;29.00;56.40
21355;DHT22;10835;50.148;19.760;2023-06-24T14:29:54;29.00;57.20
21355;DHT22;10835;50.148;19.760;2023-06-24T14:32:23;29.30;56.90
21355;DHT22;10835;50.148;19.760;2023-06-24T14:34:54;29.30;56.70
21355;DHT22;10835;50.148;19.760;2023-06-24T14:37:24;29.60;56.30
21355;DHT22;10835;50.148;19.760;2023-06-24T14:39:52;29.50;56.20
21355;DHT22;10835;50.148;19.760;2023-06-24T14:42:21;29.40;56.10
21355;DHT22;10835;50.148;19.760;2023-06-24T14:44:49;29.40;56.30
21355;DHT22;10835;50.148;19.760;2023-06-24T14:47:17;29.50;56.70
21355;DHT22;10835;50.148;19.760;2023-06-24T14:49:45;29.60;57.50
21355;DHT22;10835;50.148;19.760;2023-06-24T14:52:14;29.30;57.00
21355;DHT22;10835;50.148;19.760;2023-06-24T14:54:43;29.70;57.00
21355;DHT22;10835;50.148;19.760;2023-06-24T14:57:12;29.50;57.20
21355;DHT22;10835;50.148;19.760;2023-06-24T14:59:40;29.50;56.70
21355;DHT22;10835;50.148;19.760;2023-06-24T15:02:08;29.20;57.00
21355;DHT22;10835;50.148;19.760;2023-06-24T15:04:37;29.30;57.50
21355;DHT22;10835;50.148;19.760;2023-06-24T15:07:05;29.10;56.60
21355;DHT22;10835;50.148;19.760;2023-06-24T15:09:36;28.90;56.40
21355;DHT22;10835;50.148;19.760;2023-06-24T15:12:07;28.70;56.10
21355;DHT22;10835;50.148;19.760;2023-06-24T15:14:35;28.50;55.20
21355;DHT22;10835;50.148;19.760;2023-06-24T15:17:03;28.40;56.00
21355;DHT22;10835;50.148;19.760;2023-06-24T15:19:32;28.10;56.00
21355;DHT22;10835;50.148;19.760;2023-06-24T15:22:00;28.00;55.70
21355;DHT22;10835;50.148;19.760;2023-06-24T15:24:29;28.10;56.00
21355;DHT22;10835;50.148;19.760;2023-06-24T15:26:58;28.10;55.50
21355;DHT22;10835;50.148;19.760;2023-06-24T15:29:28;27.90;55.60
21355;DHT22;10835;50.148;19.760;2023-06-24T15:31:57;27.80;56.10